createdAt,value
2024-03-10T00:00:22.796Z,37.20
2024-03-10T00:02:50.532Z,40.20
2024-03-10T00:05:18.151Z,41.42
2024-03-10T00:07:47.303Z,41.88
2024-03-10T00:10:16.253Z,41.58
2024-03-10T00:12:48.953Z,41.80
2024-03-10T00:15:20.785Z,41.60
2024-03-10T00:17:48.410Z,45.05
2024-03-10T00:20:15.481Z,41.17
2024-03-10T00:22:45.300Z,44.75
2024-03-10T00:25:14.369Z,45.45
2024-03-10T00:27:41.171Z,43.25
2024-03-10T00:30:10.557Z,43.70
2024-03-10T00:32:38.229Z,43.63
2024-03-10T00:35:10.037Z,42.60
2024-03-10T00:37:36.885Z,39.50
2024-03-10T00:40:06.762Z,43.75
2024-03-10T00:42:33.654Z,33.08
2024-03-10T00:45:00.497Z,28.73
2024-03-10T00:47:27.414Z,36.58
2024-03-10T00:49:54.263Z,33.40
2024-03-10T00:52:21.053Z,32.35
2024-03-10T00:54:47.795Z,33.15
2024-03-10T00:57:15.605Z,34.40
2024-03-10T00:59:43.487Z,39.55
2024-03-10T01:02:10.481Z,40.33
2024-03-10T01:04:37.306Z,37.58
2024-03-10T01:07:04.931Z,39.67
2024-03-10T01:09:31.791Z,40.13
2024-03-10T01:11:58.681Z,39.72
2024-03-10T01:14:25.948Z,38.92
2024-03-10T01:16:53.131Z,36.25
2024-03-10T01:21:47.257Z,37.05
2024-03-10T01:24:14.754Z,38.88
2024-03-10T01:26:41.620Z,43.22
2024-03-10T01:29:09.999Z,39.67
2024-03-10T01:31:37.045Z,43.65
2024-03-10T01:36:31.316Z,43.20
2024-03-10T01:38:58.106Z,42.63
2024-03-10T01:41:26.775Z,40.70
2024-03-10T01:43:53.977Z,42.75
2024-03-10T01:46:22.955Z,39.80
2024-03-10T01:48:50.190Z,39.88
2024-03-10T01:51:17.648Z,37.58
2024-03-10T01:53:44.885Z,37.72
2024-03-10T01:56:12.897Z,34.38
2024-03-10T01:58:40.968Z,38.35
2024-03-10T02:01:08.315Z,37.78
2024-03-10T02:03:35.103Z,36.88
2024-03-10T02:06:02.850Z,40.08
2024-03-10T02:08:29.988Z,38.83
2024-03-10T02:13:23.865Z,37.17
2024-03-10T02:16:04.476Z,36.70
2024-03-10T02:18:33.669Z,39.65
2024-03-10T02:21:00.953Z,40.65
2024-03-10T02:23:41.643Z,41.60
2024-03-10T02:26:10.166Z,40.92
2024-03-10T02:28:47.759Z,42.28
2024-03-10T02:31:33.827Z,43.10
2024-03-10T02:34:19.214Z,44.20
2024-03-10T02:37:04.733Z,44.85
2024-03-10T02:39:49.954Z,42.65
2024-03-10T02:42:35.481Z,42.58
2024-03-10T02:45:20.899Z,42.78
2024-03-10T02:47:47.755Z,45.60
2024-03-10T02:50:14.598Z,43.50
2024-03-10T02:52:41.416Z,44.78
2024-03-10T02:55:09.962Z,43.25
2024-03-10T02:57:36.703Z,42.85
2024-03-10T03:00:03.882Z,41.17
2024-03-10T03:04:58.205Z,39.40
2024-03-10T03:07:25.129Z,40.78
2024-03-10T03:09:51.885Z,41.28
2024-03-10T03:12:18.828Z,41.42
2024-03-10T03:14:45.691Z,43.97
2024-03-10T03:17:12.444Z,42.80
2024-03-10T03:19:39.340Z,42.67
2024-03-10T03:22:06.095Z,44.42
2024-03-10T03:24:32.914Z,42.75
2024-03-10T03:26:59.946Z,42.65
2024-03-10T03:29:26.792Z,41.85
2024-03-10T03:31:53.688Z,42.85
2024-03-10T03:34:20.991Z,41.53
2024-03-10T03:36:47.964Z,43.65
2024-03-10T03:39:14.824Z,41.50
2024-03-10T03:41:41.622Z,43.05
2024-03-10T03:44:08.625Z,40.22
2024-03-10T03:46:35.503Z,38.33
2024-03-10T03:49:02.269Z,41.60
2024-03-10T03:51:29.030Z,40.22
2024-03-10T03:53:55.824Z,41.70
2024-03-10T03:56:22.756Z,39.80
2024-03-10T03:58:50.469Z,43.42
2024-03-10T04:01:18.937Z,37.05
2024-03-10T04:03:45.863Z,39.45
2024-03-10T04:06:12.762Z,36.60
2024-03-10T04:08:39.597Z,41.30
2024-03-10T04:11:06.444Z,40.33
2024-03-10T04:13:33.349Z,40.70
2024-03-10T04:16:00.134Z,41.25
2024-03-10T04:18:27.733Z,40.05
2024-03-10T04:20:54.518Z,40.17
2024-03-10T04:23:21.292Z,40.40
2024-03-10T04:25:48.162Z,39.28
2024-03-10T04:28:15.172Z,39.53
2024-03-10T04:30:42.631Z,40.20
2024-03-10T04:33:10.044Z,40.45
2024-03-10T04:35:39.306Z,43.38
2024-03-10T04:38:06.448Z,40.60
2024-03-10T04:40:33.258Z,39.88
2024-03-10T04:43:00.826Z,39.28
2024-03-10T04:45:28.694Z,37.10
2024-03-10T04:47:55.755Z,35.80
2024-03-10T04:50:22.639Z,36.35
2024-03-10T04:52:49.484Z,33.30
2024-03-10T04:55:16.300Z,38.17
2024-03-10T04:57:43.129Z,28.88
2024-03-10T05:00:17.311Z,33.88
2024-03-10T05:02:44.076Z,48.05
2024-03-10T05:05:11.701Z,35.70
2024-03-10T05:07:38.515Z,41.97
2024-03-10T05:10:05.529Z,61.95
2024-03-10T05:12:32.256Z,54.88
2024-03-10T05:14:59.006Z,65.00
2024-03-10T05:17:25.834Z,68.55
2024-03-10T05:19:52.739Z,61.17
2024-03-10T05:22:19.627Z,68.45
2024-03-10T05:24:46.390Z,72.75
2024-03-10T05:27:13.276Z,61.75
2024-03-10T05:29:40.013Z,71.65
2024-03-10T05:32:07.252Z,86.97
2024-03-10T05:34:36.655Z,82.30
2024-03-10T05:37:04.692Z,84.00
2024-03-10T05:39:33.507Z,101.13
2024-03-10T05:42:00.860Z,82.25
2024-03-10T05:44:27.928Z,79.60
2024-03-10T05:49:22.167Z,60.05
2024-03-10T05:51:49.231Z,62.50
2024-03-10T05:54:16.075Z,56.65
2024-03-10T05:56:42.865Z,70.43
2024-03-10T05:59:10.856Z,77.88
2024-03-10T06:01:37.723Z,60.95
2024-03-10T06:04:06.114Z,57.78
2024-03-10T06:06:33.245Z,66.45
2024-03-10T06:09:01.240Z,58.60
2024-03-10T06:11:29.615Z,52.58
2024-03-10T06:13:56.537Z,40.10
2024-03-10T06:16:25.712Z,43.22
2024-03-10T06:18:56.747Z,42.92
2024-03-10T06:21:44.032Z,43.55
2024-03-10T06:24:29.619Z,39.20
2024-03-10T06:26:56.523Z,43.30
2024-03-10T06:29:25.356Z,40.30
2024-03-10T06:31:52.682Z,38.58
